Georgetown, TX (78633)

10:49 PM CDT on September 04, 2015 (GMT -0500)
Serenada West | | Change Station
CLOSE
Current Station
Personal Weather Station
Location: Georgetown, TX
Elevation: 790 ft
Nearby Weather Stations

Elev 790 ft 30.69 °N, 97.70 °W | Updated 7 seconds ago

Mostly Cloudy
Mostly Cloudy
82.2 °F
Feels Like 80 °F
N
6.5
Wind Variable Wind from SSE
Gusts 8.7 mph

Today
High -- | Low -- °F
--% Chance of Precip.
Yesterday
High -- | Low -- °F
Precip. -- in
7:08 AM 7:50 PM
Waning Gibbous, 53% visible
Pressure 29.96 in
Visibility 10.0 miles
Clouds Mostly Cloudy 12000 ft
Heat Index 80 °F
Dew Point 40 °F
Humidity 22%
Rainfall 0.00 in
Snow Depth Not available.
UV 0 out of 12
Pollen 7.50 out of 12
Air Quality Not available.
Flu Activity Not available.
METAR KGTU 050335Z 16006KT 10SM BKN120 28/22 A2996 RMK AO1
Pressure 29.96 in
Visibility 10.0 miles
Clouds Mostly Cloudy 12000 ft
Heat Index 80 °F
Dew Point 40 °F
Humidity 22%
Rainfall 0.00 in
Snow Depth Not available.
UV 0 out of 12
Pollen 7.50 out of 12
Air Quality Not available.
Flu Activity Not available.
METAR KGTU 050335Z 16006KT 10SM BKN120 28/22 A2996 RMK AO1

10-Day Weather Forecast

×

Almanac

Astronomy

Sep. 04, 2015 Rise Set
Actual Time
Civil Twilight
Nautical Twilight
Astronomical Twilight
Moon
Length of Visible Light
Length of Day
Tomorrow will be .
, % of the Moon is Illuminated

Today's Extremes

State Highs State Lows

Community

WunderPhotos

Upload Photos

1,852,408 photos uploaded!

WunderBlogs® & News

Nearby

Air Quality

  Air Quality AQ Index Pollutant
Not available.

Snow Depth

Station Depth Elevation

Earthquake Activity

City Distance Mag. Time & Date
Minimum magnitude displayed is 2.5.

Coastal Water Temperatures

Place Temperature

Stations

Nearby Weather Stations

Station Location Temp. Windchill Dew Point Humidity Wind Precip. Elev Updated Type